Time;durP1;ratioP1;P1;durP2;ratioP2;P2;SDS_P1;SDS_P2;PMS_P1;PMS_P2;Temp;Humidity;BMP_temperature;BMP_pressure;BME280_temperature;BME280_humidity;BME280_pressure;Samples;Min_cycle;Max_cycle;Signal;HPM_P1;HPM_P2
2022/04/02 00:01:52;;;;;;;20.63;12.07;;;8.10;47.80;;;;;;5118310;27;20020;-68
2022/04/02 00:04:18;;;;;;;22.30;13.05;;;8.10;48.00;;;;;;5136380;27;20046;-67
2022/04/02 00:06:43;;;;;;;29.08;13.05;;;8.00;48.00;;;;;;5136344;27;20031;-67
2022/04/02 00:09:09;;;;;;;19.90;12.32;;;8.00;48.20;;;;;;5136447;27;20030;-68
2022/04/02 00:11:35;;;;;;;18.83;11.32;;;8.00;48.30;;;;;;5118422;27;20355;-67
2022/04/02 00:14:01;;;;;;;22.70;12.98;;;8.00;49.00;;;;;;5136623;27;20581;-67
2022/04/02 00:16:26;;;;;;;24.15;12.38;;;8.00;48.30;;;;;;5136414;27;20019;-67
2022/04/02 00:18:52;;;;;;;22.45;12.68;;;7.90;48.20;;;;;;5136494;27;20070;-67
2022/04/02 00:21:19;;;;;;;22.33;11.82;;;7.90;48.20;;;;;;5117930;27;20031;-68
2022/04/02 00:23:46;;;;;;;26.25;12.88;;;7.90;48.30;;;;;;5117844;27;20087;-67
2022/04/02 00:26:13;;;;;;;22.45;12.45;;;7.90;48.50;;;;;;5117088;27;20042;-68
2022/04/02 00:28:41;;;;;;;20.88;12.30;;;7.90;48.60;;;;;;5135906;27;20015;-67
2022/04/02 00:31:08;;;;;;;25.75;12.70;;;7.90;48.60;;;;;;5135705;27;20098;-69
2022/04/02 00:33:34;;;;;;;21.45;12.57;;;7.90;48.50;;;;;;5135935;27;20026;-67
2022/04/02 00:36:01;;;;;;;32.38;12.98;;;7.90;48.40;;;;;;5135762;27;20019;-67
2022/04/02 00:38:27;;;;;;;18.88;12.20;;;7.90;48.30;;;;;;5136182;27;20030;-67
2022/04/02 00:40:53;;;;;;;20.88;12.95;;;7.90;48.50;;;;;;5117429;27;20443;-67
2022/04/02 00:43:23;;;;;;;27.00;12.75;;;7.90;48.60;;;;;;5135380;27;20058;-67
2022/04/02 00:45:50;;;;;;;23.15;12.00;;;7.90;48.50;;;;;;5117340;27;20458;-67
2022/04/02 00:48:16;;;;;;;23.33;11.27;;;7.90;48.50;;;;;;5119145;27;20019;-67
2022/04/02 00:50:45;;;;;;;26.42;13.07;;;7.80;48.30;;;;;;5115284;28;20020;-68
2022/04/02 00:53:11;;;;;;;22.65;12.45;;;7.90;48.20;;;;;;5096856;28;20072;-68
2022/04/02 00:55:38;;;;;;;18.20;11.77;;;7.80;48.30;;;;;;5113105;27;20026;-68
2022/04/02 00:58:06;;;;;;;24.08;12.10;;;7.90;48.50;;;;;;5134563;27;20027;-67
2022/04/02 01:00:32;;;;;;;26.63;13.02;;;7.90;48.50;;;;;;5135148;27;20027;-67
2022/04/02 01:02:58;;;;;;;24.98;13.85;;;7.90;48.50;;;;;;5135388;27;20019;-68
2022/04/02 01:05:24;;;;;;;30.98;12.68;;;7.90;48.40;;;;;;5135275;27;20107;-67
2022/04/02 01:07:50;;;;;;;22.73;12.07;;;7.90;48.50;;;;;;5116747;27;20067;-67
2022/04/02 01:10:15;;;;;;;23.55;12.23;;;7.90;48.40;;;;;;5134872;27;20031;-68
2022/04/02 01:12:44;;;;;;;22.20;12.27;;;7.90;48.10;;;;;;5116743;27;20411;-68
2022/04/02 01:15:09;;;;;;;28.02;13.45;;;7.90;48.10;;;;;;5116583;27;20031;-67
2022/04/02 01:17:36;;;;;;;21.50;11.77;;;7.90;48.10;;;;;;5134511;27;20049;-67
2022/04/02 01:20:03;;;;;;;30.05;13.10;;;7.80;48.00;;;;;;5134865;27;20011;-67
2022/04/02 01:22:29;;;;;;;19.17;11.80;;;7.80;48.00;;;;;;5135234;27;20049;-67
2022/04/02 01:24:54;;;;;;;28.10;13.13;;;7.90;48.20;;;;;;5134345;27;20415;-67
2022/04/02 01:27:21;;;;;;;27.48;12.07;;;7.90;48.20;;;;;;5134887;27;20023;-67
2022/04/02 01:29:47;;;;;;;31.50;13.45;;;7.80;48.10;;;;;;5134902;27;20046;-69
2022/04/02 01:32:13;;;;;;;26.00;13.10;;;7.80;48.00;;;;;;5134648;27;20050;-67
2022/04/02 01:34:38;;;;;;;30.77;14.50;;;7.80;48.20;;;;;;5134656;27;20030;-67
2022/04/02 01:37:05;;;;;;;43.88;13.60;;;7.70;48.20;;;;;;5134362;27;20446;-68
2022/04/02 01:39:31;;;;;;;30.08;12.88;;;7.70;48.30;;;;;;5115517;27;20478;-67
2022/04/02 01:41:57;;;;;;;28.88;12.52;;;7.70;48.20;;;;;;5134740;27;20034;-67
2022/04/02 01:44:23;;;;;;;22.85;12.18;;;7.70;48.40;;;;;;5116187;27;20153;-67
2022/04/02 01:46:49;;;;;;;32.33;12.48;;;7.70;48.40;;;;;;5130078;27;20469;-67
2022/04/02 01:49:14;;;;;;;31.52;13.18;;;7.70;48.50;;;;;;5113883;28;20019;-67
2022/04/02 01:51:40;;;;;;;37.80;12.85;;;7.60;48.30;;;;;;5100919;28;20075;-68
2022/04/02 01:54:06;;;;;;;30.85;12.13;;;7.60;48.10;;;;;;5103970;27;20106;-67
2022/04/02 01:56:31;;;;;;;24.25;12.73;;;7.60;48.10;;;;;;5115698;27;20127;-67
2022/04/02 01:58:57;;;;;;;23.95;11.48;;;7.60;48.00;;;;;;5134496;27;20031;-67
2022/04/02 02:01:23;;;;;;;26.25;11.85;;;7.60;48.10;;;;;;5115942;27;20026;-67
2022/04/02 02:03:49;;;;;;;32.85;11.50;;;7.60;48.10;;;;;;5115703;27;20023;-67
2022/04/02 02:06:15;;;;;;;30.92;11.73;;;7.60;47.90;;;;;;5134024;27;20058;-67
2022/04/02 02:08:41;;;;;;;27.80;11.65;;;7.60;47.90;;;;;;5134059;27;20030;-68
2022/04/02 02:11:06;;;;;;;32.90;11.73;;;7.60;47.80;;;;;;5133214;27;20079;-67
2022/04/02 02:13:32;;;;;;;29.40;12.88;;;7.60;47.90;;;;;;5134140;27;20076;-67
2022/04/02 02:15:58;;;;;;;27.98;10.50;;;7.60;47.80;;;;;;5134133;27;20527;-67
2022/04/02 02:18:23;;;;;;;26.48;11.50;;;7.50;47.60;;;;;;5133934;27;20030;-67
2022/04/02 02:20:49;;;;;;;27.17;10.52;;;7.50;47.60;;;;;;5134182;27;20023;-67
2022/04/02 02:23:15;;;;;;;31.27;11.30;;;7.50;47.60;;;;;;5133870;27;20026;-67
2022/04/02 02:25:41;;;;;;;21.80;9.30;;;7.50;47.60;;;;;;5114989;28;20298;-67
2022/04/02 02:28:06;;;;;;;32.60;10.32;;;7.50;47.60;;;;;;5133599;28;20030;-68
2022/04/02 02:30:32;;;;;;;38.88;11.98;;;7.50;47.60;;;;;;5133784;28;20110;-67
2022/04/02 02:35:51;;;;;;;21.20;9.57;;;7.50;47.60;;;;;;5101535;28;20147;-67
2022/04/02 02:38:22;;;;;;;21.15;9.43;;;7.50;47.70;;;;;;5133998;28;20033;-67
2022/04/02 02:40:51;;;;;;;20.33;10.40;;;7.50;47.70;;;;;;5115074;28;20043;-68
2022/04/02 02:43:19;;;;;;;18.92;9.20;;;7.50;47.60;;;;;;5133954;28;20196;-67
2022/04/02 02:45:45;;;;;;;26.77;10.18;;;7.50;47.60;;;;;;5115016;28;20046;-67
2022/04/02 02:48:11;;;;;;;18.67;8.65;;;7.50;47.70;;;;;;5117439;28;20110;-67
2022/04/02 02:50:37;;;;;;;32.38;9.93;;;7.50;47.80;;;;;;5113323;28;20016;-67
2022/04/02 02:53:04;;;;;;;25.73;11.00;;;7.50;47.80;;;;;;5123715;28;20027;-67
2022/04/02 02:55:30;;;;;;;20.23;9.90;;;7.50;47.60;;;;;;5114530;28;20030;-67
2022/04/02 02:57:56;;;;;;;24.52;10.15;;;7.50;47.50;;;;;;5132905;28;20027;-67
2022/04/02 03:00:22;;;;;;;35.75;11.05;;;7.60;47.60;;;;;;5111773;28;20024;-67
2022/04/02 03:02:48;;;;;;;23.88;9.32;;;7.50;47.40;;;;;;5094815;28;20020;-67
2022/04/02 03:05:16;;;;;;;26.50;10.75;;;7.60;47.60;;;;;;5126957;28;20038;-67
2022/04/02 03:07:50;;;;;;;29.00;9.82;;;7.60;47.60;;;;;;5115182;28;20058;-67
2022/04/02 03:10:20;;;;;;;26.70;9.18;;;7.60;47.60;;;;;;5113063;28;20428;-68
2022/04/02 03:12:47;;;;;;;21.80;9.88;;;7.60;47.60;;;;;;5132734;28;20030;-67
2022/04/02 03:15:15;;;;;;;17.60;9.57;;;7.60;47.60;;;;;;5115146;28;20027;-67
2022/04/02 03:17:43;;;;;;;27.55;9.98;;;7.60;47.40;;;;;;5115111;28;20023;-67
2022/04/02 03:20:11;;;;;;;25.02;9.43;;;7.60;47.50;;;;;;5115147;28;20114;-67
2022/04/02 03:22:40;;;;;;;23.67;10.68;;;7.60;47.50;;;;;;5118556;27;20038;-67
2022/04/02 03:25:11;;;;;;;25.83;10.40;;;7.60;47.50;;;;;;5117547;27;20373;-67
2022/04/02 03:27:38;;;;;;;27.38;11.15;;;7.50;47.30;;;;;;5137462;27;20026;-68
2022/04/02 03:30:07;;;;;;;22.85;10.60;;;7.50;47.50;;;;;;5118837;27;20019;-68
2022/04/02 03:32:33;;;;;;;22.50;9.75;;;7.50;47.80;;;;;;5118766;27;20019;-68
2022/04/02 03:34:59;;;;;;;30.90;10.35;;;7.50;47.90;;;;;;5118737;27;20114;-68
2022/04/02 03:37:25;;;;;;;16.20;9.10;;;7.50;48.00;;;;;;5136518;27;20037;-67
2022/04/02 03:39:52;;;;;;;24.98;9.93;;;7.40;48.10;;;;;;5118211;27;20050;-67
2022/04/02 03:42:18;;;;;;;15.60;9.00;;;7.40;48.50;;;;;;5118642;27;20019;-67
2022/04/02 03:44:45;;;;;;;23.27;9.48;;;7.40;48.70;;;;;;5118073;27;20027;-68
2022/04/02 03:47:10;;;;;;;24.90;10.20;;;7.40;48.90;;;;;;5118168;27;20407;-67
2022/04/02 03:49:41;;;;;;;23.92;9.95;;;7.30;49.30;;;;;;5136914;27;20071;-68
2022/04/02 03:52:08;;;;;;;20.50;9.73;;;7.30;49.40;;;;;;5118062;27;20480;-67
2022/04/02 03:54:39;;;;;;;18.63;9.77;;;7.30;49.80;;;;;;5118329;27;20027;-67
2022/04/02 03:57:06;;;;;;;30.45;10.13;;;7.30;49.90;;;;;;5117244;27;20513;-67
2022/04/02 03:59:32;;;;;;;22.50;10.88;;;7.30;50.10;;;;;;5117935;27;20408;-67
2022/04/02 04:01:59;;;;;;;27.02;11.35;;;7.20;50.40;;;;;;5136454;27;20022;-67
2022/04/02 04:04:26;;;;;;;34.33;12.00;;;7.20;50.70;;;;;;5135744;27;20067;-67
2022/04/02 04:06:52;;;;;;;19.67;10.38;;;7.20;51.10;;;;;;5118225;27;20522;-67
2022/04/02 04:09:19;;;;;;;22.63;10.05;;;7.10;51.10;;;;;;5136659;27;20105;-68
2022/04/02 04:11:45;;;;;;;22.13;12.00;;;7.10;51.30;;;;;;5136397;27;20082;-67
2022/04/02 04:14:12;;;;;;;20.83;11.40;;;7.10;51.40;;;;;;5136790;27;20482;-68
2022/04/02 04:16:37;;;;;;;22.15;11.85;;;7.10;51.50;;;;;;5136479;27;20046;-67
2022/04/02 04:19:03;;;;;;;23.85;11.93;;;7.10;51.60;;;;;;5135723;27;20027;-67
2022/04/02 04:21:29;;;;;;;43.25;12.07;;;7.00;51.40;;;;;;5117356;27;20023;-68
2022/04/02 04:23:55;;;;;;;22.15;10.10;;;7.00;51.50;;;;;;5136286;27;20019;-67
2022/04/02 04:26:20;;;;;;;28.42;11.45;;;7.00;51.50;;;;;;5135175;27;20077;-67
2022/04/02 04:28:46;;;;;;;24.52;11.20;;;7.00;51.50;;;;;;5135997;27;20019;-67
2022/04/02 04:31:17;;;;;;;27.70;10.25;;;6.90;51.30;;;;;;5117107;27;20030;-67
2022/04/02 04:33:48;;;;;;;23.38;10.73;;;6.90;51.30;;;;;;5135090;27;20470;-67
2022/04/02 04:36:15;;;;;;;25.17;10.65;;;6.90;51.30;;;;;;5135139;27;20023;-67
2022/04/02 04:38:43;;;;;;;24.83;10.43;;;6.90;51.30;;;;;;5135850;27;20019;-67
2022/04/02 04:41:09;;;;;;;17.52;10.38;;;6.90;51.50;;;;;;5104118;28;20032;-67
2022/04/02 04:43:35;;;;;;;20.85;10.90;;;6.90;51.50;;;;;;5115154;28;20362;-67
2022/04/02 04:46:03;;;;;;;16.00;9.85;;;6.90;51.30;;;;;;5115324;28;20035;-68
2022/04/02 04:48:30;;;;;;;22.58;10.23;;;6.90;51.30;;;;;;5091815;28;20031;-67
2022/04/02 04:50:56;;;;;;;29.30;9.95;;;6.90;51.40;;;;;;5095255;28;20467;-67
2022/04/02 04:53:22;;;;;;;24.48;9.93;;;6.90;51.20;;;;;;5113947;28;20067;-67
2022/04/02 04:55:48;;;;;;;26.10;9.38;;;7.00;51.00;;;;;;5104191;28;20077;-67
2022/04/02 04:58:14;;;;;;;17.20;9.27;;;7.00;51.10;;;;;;5100837;28;20024;-67
2022/04/02 05:00:41;;;;;;;17.83;9.45;;;7.00;50.90;;;;;;5103130;27;20034;-67
2022/04/02 05:03:08;;;;;;;15.70;9.10;;;7.00;50.90;;;;;;5117094;27;20034;-67
2022/04/02 05:05:35;;;;;;;19.20;9.40;;;7.00;50.90;;;;;;5117416;27;20024;-67
2022/04/02 05:08:01;;;;;;;31.15;9.85;;;7.10;50.80;;;;;;5113881;28;20506;-67
2022/04/02 05:10:28;;;;;;;18.58;9.23;;;7.10;50.60;;;;;;5114409;27;20028;-68
2022/04/02 05:12:54;;;;;;;16.27;9.50;;;7.10;50.50;;;;;;5096331;28;20546;-67
2022/04/02 05:15:21;;;;;;;16.45;9.02;;;7.10;50.30;;;;;;5095904;28;20028;-67
2022/04/02 05:17:46;;;;;;;27.02;9.65;;;7.10;50.00;;;;;;5118334;27;20031;-66
2022/04/02 05:20:17;;;;;;;27.63;9.55;;;7.20;50.00;;;;;;5091925;28;20027;-67
2022/04/02 05:22:43;;;;;;;23.13;8.93;;;7.20;50.00;;;;;;5097350;28;20103;-68
2022/04/02 05:25:10;;;;;;;25.92;9.75;;;7.20;50.10;;;;;;5096232;28;20479;-68
2022/04/02 05:27:37;;;;;;;19.83;8.60;;;7.20;50.00;;;;;;5075824;28;20024;-67
2022/04/02 05:30:04;;;;;;;20.50;10.20;;;7.20;49.80;;;;;;5076049;28;20028;-67
2022/04/02 05:32:33;;;;;;;32.10;11.65;;;7.30;49.70;;;;;;5078146;28;20070;-66
2022/04/02 05:34:59;;;;;;;16.98;9.48;;;7.30;49.40;;;;;;5112435;28;20038;-67
2022/04/02 05:37:25;;;;;;;22.75;10.88;;;7.30;49.40;;;;;;5113843;28;20019;-67
2022/04/02 05:39:51;;;;;;;25.90;9.80;;;7.30;49.30;;;;;;5110139;27;20118;-67
2022/04/02 05:42:17;;;;;;;24.65;9.57;;;7.30;49.10;;;;;;5111535;28;20031;-67
2022/04/02 05:44:43;;;;;;;29.95;10.80;;;7.30;48.80;;;;;;5098907;28;20019;-67
2022/04/02 05:47:09;;;;;;;23.63;10.07;;;7.30;48.60;;;;;;5095518;28;20024;-67
2022/04/02 05:49:36;;;;;;;21.13;9.52;;;7.30;48.60;;;;;;5095887;28;20023;-67
2022/04/02 05:52:06;;;;;;;25.13;9.65;;;7.40;48.70;;;;;;5093222;28;20039;-67
2022/04/02 05:54:34;;;;;;;21.10;11.13;;;7.40;48.60;;;;;;5108256;28;20031;-67
2022/04/02 05:57:00;;;;;;;23.17;10.38;;;7.40;48.40;;;;;;5108674;28;20110;-66
2022/04/02 05:59:26;;;;;;;23.38;10.02;;;7.40;48.30;;;;;;5090072;28;20039;-67
2022/04/02 06:01:52;;;;;;;24.90;10.13;;;7.50;48.10;;;;;;5094075;28;20479;-68
2022/04/02 06:04:18;;;;;;;21.83;9.45;;;7.50;48.00;;;;;;5097228;28;20031;-67
2022/04/02 06:06:44;;;;;;;22.48;9.68;;;7.50;47.70;;;;;;5133695;27;20433;-66
2022/04/02 06:09:11;;;;;;;33.15;9.93;;;7.50;47.80;;;;;;5111521;27;20035;-66
2022/04/02 06:11:37;;;;;;;27.27;10.00;;;7.50;47.40;;;;;;5096723;27;20378;-67
2022/04/02 06:14:02;;;;;;;19.42;9.88;;;7.50;47.50;;;;;;5131899;27;20098;-68
2022/04/02 06:16:28;;;;;;;24.52;9.38;;;7.60;48.30;;;;;;5099414;28;20051;-68
2022/04/02 06:18:54;;;;;;;36.67;10.63;;;7.60;47.30;;;;;;5096160;28;20459;-67
2022/04/02 06:21:20;;;;;;;31.13;10.98;;;7.60;47.20;;;;;;5096236;28;20030;-67
2022/04/02 06:23:46;;;;;;;16.55;9.18;;;7.60;47.30;;;;;;5113565;28;20019;-67
2022/04/02 06:26:12;;;;;;;32.70;9.70;;;7.60;47.10;;;;;;5096675;28;20032;-68
2022/04/02 06:28:40;;;;;;;28.38;8.70;;;7.60;46.90;;;;;;5105903;28;20051;-67
2022/04/02 06:31:07;;;;;;;21.67;8.75;;;7.60;47.10;;;;;;5115167;28;20027;-67
2022/04/02 06:33:33;;;;;;;22.23;8.90;;;7.70;47.20;;;;;;5105144;28;20047;-67
2022/04/02 06:36:00;;;;;;;21.08;8.52;;;7.70;46.90;;;;;;5095033;28;20038;-67
2022/04/02 06:38:26;;;;;;;22.30;9.73;;;7.80;46.90;;;;;;5129856;28;20347;-68
2022/04/02 06:40:53;;;;;;;24.98;8.73;;;7.80;46.60;;;;;;5114554;28;20486;-67
2022/04/02 06:43:19;;;;;;;22.25;9.15;;;7.90;46.20;;;;;;5115280;28;20102;-67
2022/04/02 06:45:45;;;;;;;18.90;8.80;;;7.80;46.00;;;;;;5112115;28;20040;-67
2022/04/02 06:48:13;;;;;;;17.05;8.48;;;7.90;46.20;;;;;;5109795;28;20076;-68
2022/04/02 06:50:39;;;;;;;23.02;8.88;;;7.90;46.20;;;;;;5113563;28;20106;-67
2022/04/02 06:53:05;;;;;;;23.55;9.50;;;7.90;46.20;;;;;;5115070;28;20031;-67
2022/04/02 06:55:32;;;;;;;26.48;8.63;;;7.90;45.70;;;;;;5114984;27;20031;-67
2022/04/02 06:57:59;;;;;;;23.00;9.38;;;7.90;45.70;;;;;;5137167;27;20047;-68
2022/04/02 07:00:25;;;;;;;31.08;9.43;;;7.90;45.70;;;;;;5119017;27;20023;-67
2022/04/02 07:02:51;;;;;;;18.13;8.73;;;7.90;45.60;;;;;;5137041;27;20027;-67
2022/04/02 07:05:21;;;;;;;23.85;9.10;;;7.90;45.70;;;;;;5136681;27;20398;-67
2022/04/02 07:07:48;;;;;;;19.58;9.38;;;7.90;45.60;;;;;;5118596;27;20393;-67
2022/04/02 07:10:13;;;;;;;23.23;9.50;;;8.00;45.50;;;;;;5118783;27;20031;-69
2022/04/02 07:12:39;;;;;;;30.33;9.63;;;8.00;45.50;;;;;;5136971;27;20046;-67
2022/04/02 07:15:07;;;;;;;23.02;8.80;;;8.00;45.40;;;;;;5118570;27;20035;-68
2022/04/02 07:17:34;;;;;;;30.98;9.18;;;7.90;45.30;;;;;;5136280;27;20423;-67
2022/04/02 07:20:01;;;;;;;24.10;8.95;;;8.00;45.40;;;;;;5118086;27;20080;-67
2022/04/02 07:22:27;;;;;;;22.17;9.52;;;8.00;45.30;;;;;;5117743;27;20372;-67
2022/04/02 07:24:55;;;;;;;17.15;8.52;;;8.00;45.30;;;;;;5117673;27;20023;-67
2022/04/02 07:27:24;;;;;;;19.75;8.63;;;8.00;45.40;;;;;;5118603;27;20035;-68
2022/04/02 07:29:53;;;;;;;17.80;8.38;;;8.10;45.40;;;;;;5117194;27;20071;-69
2022/04/02 07:32:19;;;;;;;30.90;8.80;;;8.20;45.40;;;;;;5118116;27;20027;-68
2022/04/02 07:34:45;;;;;;;17.75;7.93;;;8.20;45.30;;;;;;5129528;27;20028;-68
2022/04/02 07:37:19;;;;;;;27.92;8.70;;;8.30;45.30;;;;;;5128775;27;20035;-67
2022/04/02 07:39:57;;;;;;;15.25;8.18;;;8.30;44.70;;;;;;5117756;27;20536;-67
2022/04/02 07:42:37;;;;;;;30.08;9.32;;;8.20;44.50;;;;;;5131415;27;20085;-67
2022/04/02 07:45:08;;;;;;;19.45;9.13;;;8.20;44.50;;;;;;5118236;27;20066;-68
2022/04/02 07:47:37;;;;;;;29.92;8.77;;;8.30;44.40;;;;;;5117921;27;20119;-68
2022/04/02 07:50:13;;;;;;;36.47;9.75;;;8.30;44.40;;;;;;5116711;27;20443;-67
2022/04/02 07:52:49;;;;;;;21.83;9.82;;;8.30;44.30;;;;;;5117470;27;20507;-68
2022/04/02 07:55:16;;;;;;;29.13;8.45;;;8.20;44.20;;;;;;5117932;27;20386;-67
2022/04/02 07:57:50;;;;;;;19.75;7.88;;;8.30;44.60;;;;;;5118029;27;20023;-69
2022/04/02 08:00:21;;;;;;;29.30;8.77;;;8.40;44.60;;;;;;5117135;27;20118;-68
2022/04/02 08:02:50;;;;;;;20.95;8.35;;;8.40;44.40;;;;;;5109198;27;20471;-68
2022/04/02 08:05:20;;;;;;;30.50;8.95;;;8.50;44.20;;;;;;5135359;27;20031;-68
2022/04/02 08:07:54;;;;;;;20.40;9.05;;;8.60;44.30;;;;;;5116415;27;20091;-68
2022/04/02 08:10:25;;;;;;;19.90;7.82;;;8.60;43.60;;;;;;5116521;27;20530;-68
2022/04/02 08:12:57;;;;;;;21.15;8.00;;;8.60;43.50;;;;;;5131164;27;20035;-68
2022/04/02 08:15:24;;;;;;;18.67;8.75;;;8.70;43.40;;;;;;5117592;27;20027;-68
2022/04/02 08:17:54;;;;;;;21.23;8.25;;;8.70;43.70;;;;;;5132815;27;20035;-68
2022/04/02 08:20:24;;;;;;;24.45;8.32;;;8.70;43.40;;;;;;5137825;27;20458;-68
2022/04/02 08:22:51;;;;;;;27.77;8.70;;;8.70;43.00;;;;;;5117427;27;20500;-68
2022/04/02 08:25:17;;;;;;;19.92;10.35;;;8.80;43.00;;;;;;5117261;27;20158;-68
2022/04/02 08:27:46;;;;;;;28.45;8.40;;;8.80;43.00;;;;;;5135243;27;20026;-68
2022/04/02 08:30:18;;;;;;;20.88;8.90;;;8.80;42.80;;;;;;5117776;27;20027;-68
2022/04/02 08:33:08;;;;;;;16.15;7.60;;;8.90;42.90;;;;;;5135161;27;20027;-68
2022/04/02 08:35:39;;;;;;;19.98;7.22;;;8.90;42.50;;;;;;5134054;27;20508;-68
2022/04/02 08:38:22;;;;;;;17.38;7.75;;;9.00;42.60;;;;;;5114148;27;20024;-68
2022/04/02 08:40:54;;;;;;;21.88;7.30;;;9.00;42.40;;;;;;5088505;28;20051;-68
2022/04/02 08:43:56;;;;;;;20.52;8.23;;;9.10;41.90;;;;;;5110949;27;20172;-69
2022/04/02 08:46:41;;;;;;;22.50;7.80;;;9.10;42.10;;;;;;5126175;27;20031;-68
2022/04/02 08:49:13;;;;;;;17.13;7.50;;;9.10;41.90;;;;;;5108497;28;20540;-68
2022/04/02 08:51:46;;;;;;;31.48;7.53;;;9.10;41.70;;;;;;5088859;28;20118;-76
2022/04/02 08:54:28;;;;;;;15.00;6.77;;;9.10;41.40;;;;;;5076819;28;20036;-76
2022/04/02 08:56:58;;;;;;;12.45;6.53;;;9.10;41.70;;;;;;5094985;28;20254;-75
2022/04/02 08:59:46;;;;;;;21.50;6.78;;;9.20;42.00;;;;;;5094500;28;20050;-75
2022/04/02 09:02:34;;;;;;;23.33;7.15;;;9.30;42.00;;;;;;5075719;28;20499;-75
2022/04/02 09:05:03;;;;;;;16.00;6.90;;;9.40;41.40;;;;;;5103130;28;20486;-76
2022/04/02 09:07:56;;;;;;;17.83;6.78;;;9.40;41.60;;;;;;5114159;27;20023;-76
2022/04/02 09:10:59;;;;;;;19.60;7.82;;;9.50;41.90;;;;;;5111281;27;20024;-75
2022/04/02 09:13:50;;;;;;;21.05;6.82;;;9.50;41.10;;;;;;5112831;28;20023;-75
2022/04/02 09:16:58;;;;;;;16.13;6.95;;;9.50;40.70;;;;;;5126695;27;20039;-76
2022/04/02 09:19:52;;;;;;;20.65;7.28;;;9.50;40.70;;;;;;5104328;28;20034;-75
2022/04/02 09:22:49;;;;;;;17.70;7.85;;;9.50;40.90;;;;;;5104293;27;20386;-75
2022/04/02 09:26:00;;;;;;;24.33;7.63;;;9.50;40.30;;;;;;5116870;27;20039;-75
2022/04/02 09:28:45;;;;;;;12.07;6.85;;;9.40;40.20;;;;;;5110259;28;20111;-75
2022/04/02 09:31:18;;;;;;;26.08;8.70;;;9.40;40.10;;;;;;5097473;27;20119;-75
2022/04/02 09:34:01;;;;;;;17.85;8.27;;;9.40;40.20;;;;;;5113575;28;20474;-75
2022/04/02 09:36:37;;;;;;;21.85;8.82;;;9.40;40.80;;;;;;5118010;27;20089;-75
2022/04/02 09:39:15;;;;;;;15.40;8.10;;;9.40;40.50;;;;;;5095948;28;20463;-75
2022/04/02 09:42:09;;;;;;;15.43;7.70;;;9.40;40.70;;;;;;5096367;28;20439;-75
2022/04/02 09:44:41;;;;;;;21.83;9.03;;;9.40;40.70;;;;;;5096321;28;20378;-75
2022/04/02 09:47:16;;;;;;;22.52;8.90;;;9.40;40.00;;;;;;5095875;28;20391;-75
2022/04/02 09:50:05;;;;;;;22.60;8.45;;;9.30;39.90;;;;;;5095886;28;20031;-75
2022/04/02 09:52:35;;;;;;;19.83;8.23;;;9.20;39.80;;;;;;5114374;28;20073;-75
2022/04/02 09:55:16;;;;;;;16.20;7.55;;;9.20;40.10;;;;;;5094952;28;20066;-75
2022/04/02 09:57:45;;;;;;;23.30;8.77;;;9.10;40.00;;;;;;5113739;28;20028;-75
2022/04/02 10:00:16;;;;;;;14.02;7.13;;;9.10;40.10;;;;;;5095785;28;20023;-75
2022/04/02 10:03:04;;;;;;;31.95;8.25;;;9.10;39.70;;;;;;5114176;28;20042;-75
2022/04/02 10:05:56;;;;;;;16.58;7.35;;;9.00;39.80;;;;;;5095434;28;20032;-75
2022/04/02 10:08:35;;;;;;;19.55;8.07;;;9.00;39.90;;;;;;5075341;28;20066;-76
2022/04/02 10:11:02;;;;;;;13.65;7.05;;;9.00;40.10;;;;;;5113407;28;20034;-74
2022/04/02 10:13:33;;;;;;;13.50;7.80;;;9.00;40.50;;;;;;5095451;28;20027;-75
2022/04/02 10:16:05;;;;;;;23.58;7.13;;;9.00;40.60;;;;;;5095687;28;20039;-74
2022/04/02 10:18:35;;;;;;;20.75;7.60;;;9.10;40.80;;;;;;5094962;28;20028;-75
2022/04/02 10:21:05;;;;;;;15.18;7.90;;;9.10;40.80;;;;;;5113316;28;20459;-74
2022/04/02 10:23:35;;;;;;;16.67;7.28;;;9.10;40.70;;;;;;5114151;28;20031;-75
2022/04/02 10:26:20;;;;;;;23.85;8.52;;;9.10;41.00;;;;;;5113905;28;20063;-75
2022/04/02 10:28:51;;;;;;;18.75;7.90;;;9.10;41.10;;;;;;5095544;28;20020;-75
2022/04/02 10:31:32;;;;;;;24.70;7.68;;;9.10;41.30;;;;;;5094683;28;20080;-74
2022/04/02 10:34:07;;;;;;;15.45;7.80;;;9.10;41.40;;;;;;5095260;28;20494;-74
2022/04/02 10:36:43;;;;;;;15.40;7.50;;;9.10;41.70;;;;;;5095568;28;20042;-74
2022/04/02 10:39:09;;;;;;;21.77;8.23;;;9.10;41.70;;;;;;5113544;28;20044;-74
2022/04/02 10:41:41;;;;;;;10.80;6.93;;;9.10;41.90;;;;;;5113668;28;20050;-74
2022/04/02 10:44:30;;;;;;;17.92;7.85;;;9.10;42.20;;;;;;5103832;28;20088;-74
2022/04/02 10:47:01;;;;;;;18.80;7.57;;;9.10;42.20;;;;;;5115710;28;20042;-74
2022/04/02 10:49:34;;;;;;;18.40;7.70;;;9.20;42.40;;;;;;5133964;28;20023;-75
2022/04/02 10:52:02;;;;;;;13.30;7.72;;;9.20;42.40;;;;;;5134103;28;20420;-75
2022/04/02 10:54:29;;;;;;;17.85;7.57;;;9.20;42.50;;;;;;5115674;28;20051;-74
2022/04/02 10:56:56;;;;;;;13.85;7.10;;;9.30;42.70;;;;;;5134171;28;20080;-74
2022/04/02 10:59:26;;;;;;;14.00;7.53;;;9.30;42.50;;;;;;5133353;28;20026;-74
2022/04/02 11:01:56;;;;;;;17.98;7.45;;;9.40;42.70;;;;;;5133427;28;20054;-74
2022/04/02 11:04:53;;;;;;;15.85;7.47;;;9.40;42.80;;;;;;5133888;28;20083;-74
2022/04/02 11:07:30;;;;;;;12.75;7.38;;;9.50;42.80;;;;;;5134082;28;20034;-74
2022/04/02 11:10:01;;;;;;;15.75;7.18;;;9.50;42.60;;;;;;5133705;28;20029;-75
2022/04/02 11:12:42;;;;;;;11.80;6.82;;;9.50;42.10;;;;;;5114940;28;20034;-75
2022/04/02 11:15:10;;;;;;;12.73;6.90;;;9.50;41.90;;;;;;5115502;28;20026;-74
2022/04/02 11:17:41;;;;;;;19.70;7.43;;;9.60;42.10;;;;;;5115334;28;20023;-74
2022/04/02 11:20:12;;;;;;;12.10;7.20;;;9.60;41.80;;;;;;5134074;28;20034;-74
2022/04/02 11:22:57;;;;;;;13.77;6.60;;;9.50;41.70;;;;;;5094959;28;20028;-76
2022/04/02 11:25:39;;;;;;;12.30;6.80;;;9.60;42.60;;;;;;5094718;28;20067;-74
2022/04/02 11:28:05;;;;;;;14.95;6.32;;;9.60;42.20;;;;;;5094905;28;20081;-75
2022/04/02 11:30:33;;;;;;;9.95;5.93;;;9.70;42.00;;;;;;5112830;28;20028;-74
2022/04/02 11:33:07;;;;;;;16.35;5.82;;;9.70;41.50;;;;;;5113162;28;20051;-75
2022/04/02 11:35:55;;;;;;;11.18;6.43;;;9.80;41.40;;;;;;5099067;28;20031;-74
2022/04/02 11:38:39;;;;;;;8.75;5.75;;;9.80;41.60;;;;;;5133686;28;20031;-74
2022/04/02 11:41:24;;;;;;;10.68;6.65;;;9.80;41.80;;;;;;5133469;28;20031;-75
2022/04/02 11:43:51;;;;;;;;;;;9.80;41.50;;;;;;5119207;27;20526;-74
2022/04/02 11:46:19;;;;;;;11.38;6.00;;;9.90;41.90;;;;;;5118873;27;20040;-75
2022/04/02 11:48:54;;;;;;;12.85;5.93;;;9.80;41.00;;;;;;5118438;27;20469;-74
2022/04/02 11:51:31;;;;;;;8.95;5.47;;;9.70;41.20;;;;;;5136391;27;20024;-75
2022/04/02 11:54:08;;;;;;;11.93;5.22;;;9.70;41.40;;;;;;5137191;27;20032;-74
2022/04/02 11:56:46;;;;;;;9.05;5.65;;;9.70;41.70;;;;;;5134796;27;20107;-74
2022/04/02 11:59:17;;;;;;;8.40;5.63;;;9.70;41.90;;;;;;5114066;27;20034;-74
2022/04/02 12:01:45;;;;;;;12.63;6.07;;;9.70;41.90;;;;;;5135304;27;20098;-75
2022/04/02 12:04:15;;;;;;;11.48;6.47;;;9.80;41.80;;;;;;5132455;27;20031;-74
2022/04/02 12:06:43;;;;;;;14.45;5.65;;;9.80;41.80;;;;;;5109874;27;20393;-74
2022/04/02 12:09:18;;;;;;;9.75;5.97;;;9.80;41.80;;;;;;5116228;27;20394;-73
2022/04/02 12:12:03;;;;;;;12.88;5.97;;;9.80;40.80;;;;;;5122252;27;20026;-75
2022/04/02 12:14:37;;;;;;;10.30;6.10;;;9.80;41.10;;;;;;5114162;27;20382;-74
2022/04/02 12:17:14;;;;;;;9.02;5.88;;;9.80;41.20;;;;;;5116813;27;20027;-75
2022/04/02 12:19:44;;;;;;;20.10;5.13;;;9.80;40.90;;;;;;5136425;27;20035;-75
2022/04/02 12:22:22;;;;;;;15.65;6.35;;;9.80;41.00;;;;;;5133495;27;20090;-74
2022/04/02 12:24:49;;;;;;;14.23;5.78;;;9.70;40.60;;;;;;5118065;27;20027;-74
2022/04/02 12:27:19;;;;;;;8.90;5.28;;;9.70;40.60;;;;;;5135667;27;20032;-74
2022/04/02 12:29:47;;;;;;;8.23;5.13;;;9.70;40.80;;;;;;5117671;27;20083;-74
2022/04/02 12:32:28;;;;;;;9.30;5.28;;;9.70;41.40;;;;;;5118070;27;20050;-75
2022/04/02 12:35:21;;;;;;;9.30;4.93;;;9.70;41.70;;;;;;5111032;28;20030;-75
2022/04/02 12:37:49;;;;;;;8.23;5.55;;;9.70;42.00;;;;;;5131143;27;20039;-74
2022/04/02 12:40:41;;;;;;;7.78;5.15;;;9.70;42.40;;;;;;5117095;27;20054;-74
2022/04/02 12:43:10;;;;;;;7.32;5.10;;;9.70;42.70;;;;;;5117313;27;20027;-74
2022/04/02 12:45:37;;;;;;;8.02;5.50;;;9.80;43.70;;;;;;5113152;27;20042;-74
2022/04/02 12:48:04;;;;;;;7.60;4.80;;;9.70;43.90;;;;;;5133468;27;20398;-74
2022/04/02 12:50:36;;;;;;;7.82;5.40;;;9.70;44.30;;;;;;5132002;27;20083;-73
2022/04/02 12:53:03;;;;;;;6.10;4.45;;;9.80;45.00;;;;;;5116527;27;20045;-74
2022/04/02 12:55:32;;;;;;;7.72;5.55;;;9.90;45.60;;;;;;5130832;27;20038;-73
2022/04/02 12:58:07;;;;;;;10.23;5.63;;;10.00;45.90;;;;;;5126472;27;20034;-73
2022/04/02 13:00:44;;;;;;;9.02;5.40;;;10.10;45.60;;;;;;5135770;27;20015;-73
2022/04/02 13:03:26;;;;;;;10.80;5.68;;;10.20;45.60;;;;;;5116653;27;20054;-74